createdAt,value
2022-11-17T00:00:22.019Z,96034.22
2022-11-17T00:02:48.682Z,96026.84
2022-11-17T00:05:16.001Z,96027.34
2022-11-17T00:07:43.431Z,96025.72
2022-11-17T00:10:10.073Z,96028.19
2022-11-17T00:12:55.227Z,96021.56
2022-11-17T00:15:21.723Z,96024.28
2022-11-17T00:18:10.988Z,96021.56
2022-11-17T00:20:59.963Z,96025.13
2022-11-17T00:23:47.146Z,96030.16
2022-11-17T00:26:16.243Z,96030.41
2022-11-17T00:28:42.609Z,96026.75
2022-11-17T00:31:30.475Z,96018.84
2022-11-17T00:34:06.546Z,96014.25
2022-11-17T00:36:40.728Z,96008.00
2022-11-17T00:39:08.856Z,96014.09
2022-11-17T00:41:35.816Z,96011.91
2022-11-17T00:44:02.496Z,96021.91
2022-11-17T00:46:29.089Z,96013.47
2022-11-17T00:48:55.695Z,96005.59
2022-11-17T00:51:22.795Z,96009.50
2022-11-17T00:53:49.553Z,96002.00
2022-11-17T00:56:16.594Z,96005.81
2022-11-17T00:58:43.248Z,96005.91
2022-11-17T01:01:10.435Z,96002.91
2022-11-17T01:03:37.967Z,95999.28
2022-11-17T01:06:08.434Z,96005.38
2022-11-17T01:08:35.638Z,96001.75
2022-11-17T01:11:07.983Z,96015.28
2022-11-17T01:13:34.866Z,96013.38
2022-11-17T01:16:03.786Z,96016.47
2022-11-17T01:18:30.210Z,96010.53
2022-11-17T01:20:56.705Z,96014.09
2022-11-17T01:23:23.232Z,96013.75
2022-11-17T01:25:49.793Z,96003.91
2022-11-17T01:28:16.269Z,96000.31
2022-11-17T01:30:42.602Z,95988.59
2022-11-17T01:33:09.100Z,95994.91
2022-11-17T01:35:35.738Z,95988.75
2022-11-17T01:38:02.242Z,95985.72
2022-11-17T01:40:28.722Z,95982.28
2022-11-17T01:42:55.210Z,95984.00
2022-11-17T01:45:24.354Z,95974.19
2022-11-17T01:48:00.756Z,95987.25
2022-11-17T01:50:33.201Z,95978.66
2022-11-17T01:53:02.665Z,95977.38
2022-11-17T01:55:34.590Z,95977.06
2022-11-17T01:58:08.708Z,95969.41
2022-11-17T02:00:35.409Z,95967.44
2022-11-17T02:03:02.383Z,95971.34
2022-11-17T02:05:42.341Z,95970.69
2022-11-17T02:08:10.132Z,95962.53
2022-11-17T02:10:37.232Z,95950.63
2022-11-17T02:13:04.594Z,95956.16
2022-11-17T02:15:31.309Z,95952.91
2022-11-17T02:17:58.846Z,95948.16
2022-11-17T02:20:47.170Z,95952.66
2022-11-17T02:23:48.847Z,95938.84
2022-11-17T02:26:20.992Z,95936.28
2022-11-17T02:29:08.484Z,95929.81
2022-11-17T02:31:52.112Z,95922.00
2022-11-17T02:34:46.623Z,95921.16
2022-11-17T02:37:15.965Z,95919.31
2022-11-17T02:40:12.966Z,95909.41
2022-11-17T02:43:12.303Z,95920.19
2022-11-17T02:45:47.477Z,95918.06
2022-11-17T02:48:19.390Z,95912.44
2022-11-17T02:50:48.782Z,95910.34
2022-11-17T02:53:16.510Z,95910.69
2022-11-17T02:55:50.259Z,95909.97
2022-11-17T02:58:16.795Z,95907.97
2022-11-17T03:01:10.741Z,95897.09
2022-11-17T03:03:48.524Z,95899.16
2022-11-17T03:06:36.470Z,95894.94
2022-11-17T03:09:30.589Z,95881.47
2022-11-17T03:12:13.545Z,95875.66
2022-11-17T03:14:58.342Z,95862.22
2022-11-17T03:17:32.637Z,95862.22
2022-11-17T03:20:24.860Z,95862.88
2022-11-17T03:23:06.064Z,95856.91
2022-11-17T03:25:37.530Z,95865.50
2022-11-17T03:28:08.390Z,95862.44
2022-11-17T03:30:38.265Z,95852.94
2022-11-17T03:33:11.678Z,95847.38
2022-11-17T03:35:46.333Z,95833.47
2022-11-17T03:38:18.450Z,95828.59
2022-11-17T03:40:47.587Z,95831.38
2022-11-17T03:43:17.402Z,95835.00
2022-11-17T03:45:50.096Z,95817.03
2022-11-17T03:48:39.193Z,95830.13
2022-11-17T03:51:18.563Z,95825.75
2022-11-17T03:53:46.749Z,95812.47
2022-11-17T03:56:37.519Z,95815.97
2022-11-17T03:59:12.679Z,95813.03
2022-11-17T04:01:39.703Z,95808.88
2022-11-17T04:04:06.158Z,95797.16
2022-11-17T04:06:32.883Z,95798.56
2022-11-17T04:08:59.214Z,95796.03
2022-11-17T04:11:44.238Z,95794.75
2022-11-17T04:14:29.119Z,95785.06
2022-11-17T04:16:55.620Z,95781.56
2022-11-17T04:19:22.156Z,95778.31
2022-11-17T04:21:48.815Z,95770.69
2022-11-17T04:24:15.184Z,95769.16
2022-11-17T04:27:00.043Z,95768.31
2022-11-17T04:29:26.598Z,95762.00
2022-11-17T04:31:53.079Z,95755.25
2022-11-17T04:34:19.390Z,95764.59
2022-11-17T04:36:46.234Z,95773.66
2022-11-17T04:39:14.887Z,95762.66
2022-11-17T04:41:54.314Z,95747.97
2022-11-17T04:44:23.453Z,95744.16
2022-11-17T04:46:50.241Z,95738.28
2022-11-17T04:49:18.851Z,95745.69
2022-11-17T04:51:45.673Z,95758.53
2022-11-17T04:54:14.836Z,95761.69
2022-11-17T04:56:41.653Z,95784.41
2022-11-17T04:59:08.537Z,95793.25
2022-11-17T05:01:35.351Z,95795.94
2022-11-17T05:04:04.607Z,95811.84
2022-11-17T05:06:34.031Z,95810.31
2022-11-17T05:09:04.426Z,95814.00
2022-11-17T05:11:50.075Z,95813.91
2022-11-17T05:14:19.663Z,95815.66
2022-11-17T05:17:09.551Z,95809.75
2022-11-17T05:19:40.727Z,95818.47
2022-11-17T05:22:28.721Z,95827.72
2022-11-17T05:24:56.007Z,95831.44
2022-11-17T05:27:23.421Z,95843.84
2022-11-17T05:29:49.935Z,95847.84
2022-11-17T05:32:16.929Z,95855.19
2022-11-17T05:34:43.387Z,95847.78
2022-11-17T05:37:09.862Z,95834.69
2022-11-17T05:39:36.733Z,95840.69
2022-11-17T05:42:03.282Z,95831.97
2022-11-17T05:44:29.802Z,95840.81
2022-11-17T05:46:56.312Z,95826.88
2022-11-17T05:49:22.790Z,95831.88
2022-11-17T05:51:52.694Z,95835.38
2022-11-17T05:54:19.601Z,95855.81
2022-11-17T05:57:09.297Z,95852.56
2022-11-17T05:59:44.264Z,95864.97
2022-11-17T06:02:22.265Z,95859.28
2022-11-17T06:04:50.345Z,95860.28
2022-11-17T06:07:18.149Z,95860.38
2022-11-17T06:09:46.029Z,95843.16
2022-11-17T06:12:12.578Z,95851.78
2022-11-17T06:14:39.933Z,95835.75
2022-11-17T06:17:21.911Z,95828.03
2022-11-17T06:19:57.939Z,95810.13
2022-11-17T06:22:26.795Z,95805.75
2022-11-17T06:24:54.236Z,95816.19
2022-11-17T06:27:20.957Z,95805.19
2022-11-17T06:29:48.326Z,95793.56
2022-11-17T06:32:17.833Z,95798.13
2022-11-17T06:34:51.948Z,95793.47
2022-11-17T06:37:21.596Z,95794.31
2022-11-17T06:39:48.090Z,95790.91
2022-11-17T06:42:14.594Z,95798.84
2022-11-17T06:44:41.083Z,95812.47
2022-11-17T06:47:07.574Z,95816.19
2022-11-17T06:49:33.874Z,95809.75
2022-11-17T06:52:00.433Z,95790.06
2022-11-17T06:54:27.027Z,95793.50
2022-11-17T06:56:53.563Z,95805.94
2022-11-17T06:59:19.952Z,95815.38
2022-11-17T07:01:46.545Z,95819.16
2022-11-17T07:04:13.219Z,95828.03
2022-11-17T07:06:39.613Z,95834.09
2022-11-17T07:09:06.122Z,95845.16
2022-11-17T07:11:35.182Z,95841.72
2022-11-17T07:14:01.531Z,95847.38
2022-11-17T07:16:29.237Z,95842.34
2022-11-17T07:18:55.680Z,95831.69
2022-11-17T07:21:22.658Z,95838.03
2022-11-17T07:23:49.011Z,95822.69
2022-11-17T07:26:15.434Z,95811.44
2022-11-17T07:28:41.849Z,95824.22
2022-11-17T07:31:09.280Z,95822.03
2022-11-17T07:33:36.426Z,95815.00
2022-11-17T07:36:11.207Z,95812.47
2022-11-17T07:38:40.100Z,95815.94
2022-11-17T07:41:08.799Z,95810.84
2022-11-17T07:43:36.449Z,95803.53
2022-11-17T07:46:06.204Z,95810.06
2022-11-17T07:48:33.200Z,95813.19
2022-11-17T07:51:01.235Z,95827.25
2022-11-17T07:53:28.070Z,95823.53
2022-11-17T07:55:55.117Z,95819.88
2022-11-17T07:58:21.786Z,95829.44
2022-11-17T08:00:48.464Z,95847.97
2022-11-17T08:03:15.178Z,95850.19
2022-11-17T08:05:43.600Z,95852.25
2022-11-17T08:08:10.499Z,95853.53
2022-11-17T08:10:37.080Z,95850.50
2022-11-17T08:13:04.022Z,95845.06
2022-11-17T08:15:31.348Z,95834.50
2022-11-17T08:17:59.896Z,95837.22
2022-11-17T08:20:28.950Z,95834.84
2022-11-17T08:22:56.076Z,95829.91
2022-11-17T08:25:25.139Z,95841.91
2022-11-17T08:27:54.997Z,95834.72
2022-11-17T08:30:22.335Z,95828.31
2022-11-17T08:32:51.716Z,95823.69
2022-11-17T08:35:24.671Z,95820.44
2022-11-17T08:37:51.866Z,95828.47
2022-11-17T08:40:18.863Z,95823.16
2022-11-17T08:42:46.163Z,95828.59
2022-11-17T08:45:13.628Z,95832.47
2022-11-17T08:47:40.269Z,95826.50
2022-11-17T08:50:07.521Z,95832.44
2022-11-17T08:52:34.530Z,95823.06
2022-11-17T08:55:02.308Z,95813.97
2022-11-17T08:57:32.546Z,95813.81
2022-11-17T08:59:59.210Z,95792.38
2022-11-17T09:02:26.463Z,95797.44
2022-11-17T09:04:53.042Z,95810.34
2022-11-17T09:07:19.957Z,95832.66
2022-11-17T09:09:46.500Z,95825.84
2022-11-17T09:12:13.066Z,95816.09
2022-11-17T09:14:39.435Z,95824.41
2022-11-17T09:17:05.863Z,95810.78
2022-11-17T09:19:32.319Z,95801.94
2022-11-17T09:21:59.612Z,95796.44
2022-11-17T09:24:26.735Z,95803.78
2022-11-17T09:26:54.785Z,95806.78
2022-11-17T09:29:21.702Z,95802.53
2022-11-17T09:31:48.243Z,95796.13
2022-11-17T09:34:15.283Z,95792.06
2022-11-17T09:36:42.222Z,95793.69
2022-11-17T09:39:08.774Z,95813.44
2022-11-17T09:41:46.101Z,95830.06
2022-11-17T09:44:24.757Z,95849.16
2022-11-17T09:46:58.292Z,95841.50
2022-11-17T09:49:55.098Z,95857.50
2022-11-17T09:52:35.881Z,95873.53
2022-11-17T09:55:34.333Z,95883.31
2022-11-17T09:58:07.229Z,95872.25
2022-11-17T10:00:36.481Z,95866.22
2022-11-17T10:03:09.910Z,95908.22
2022-11-17T10:05:36.435Z,95893.69
2022-11-17T10:08:16.381Z,95856.94
2022-11-17T10:10:47.629Z,95846.28
2022-11-17T10:13:27.920Z,95848.38
2022-11-17T10:16:00.197Z,95848.75
2022-11-17T10:18:31.480Z,95838.06
2022-11-17T10:21:01.792Z,95834.34
2022-11-17T10:23:38.780Z,95838.81
2022-11-17T10:26:11.073Z,95839.56
2022-11-17T10:28:37.818Z,95841.94
2022-11-17T10:31:10.202Z,95836.25
2022-11-17T10:33:44.156Z,95856.31
2022-11-17T10:36:19.951Z,95849.16
2022-11-17T10:38:52.067Z,95850.34
2022-11-17T10:41:36.454Z,95857.16
2022-11-17T10:44:06.086Z,95853.16
2022-11-17T10:46:43.193Z,95833.09
2022-11-17T10:49:25.300Z,95830.22
2022-11-17T10:52:17.991Z,95840.72
2022-11-17T10:54:44.829Z,95844.75
2022-11-17T10:57:22.564Z,95837.56
2022-11-17T10:59:56.871Z,95834.13
2022-11-17T11:02:30.605Z,95829.97
2022-11-17T11:05:14.916Z,95829.84
2022-11-17T11:07:42.145Z,95824.91
2022-11-17T11:10:37.445Z,95812.69
2022-11-17T11:13:19.268Z,95826.41
2022-11-17T11:15:46.360Z,95828.44
2022-11-17T11:18:15.491Z,95826.41
2022-11-17T11:21:22.184Z,95817.00
2022-11-17T11:24:19.539Z,95794.91
2022-11-17T11:27:16.003Z,95795.06
2022-11-17T11:30:00.490Z,95795.31
2022-11-17T11:33:04.556Z,95806.00
2022-11-17T11:35:40.775Z,95806.03
2022-11-17T11:38:46.988Z,95799.50
2022-11-17T11:41:22.942Z,95797.44
2022-11-17T11:44:07.872Z,95803.69
2022-11-17T11:46:52.432Z,95796.25
2022-11-17T11:49:37.836Z,95794.56
2022-11-17T11:52:10.469Z,95801.38
2022-11-17T11:54:51.349Z,95802.16
2022-11-17T11:57:25.616Z,95809.88
2022-11-17T12:00:04.984Z,95806.22
2022-11-17T12:02:42.547Z,95796.56
2022-11-17T12:05:29.283Z,95788.66
2022-11-17T12:08:02.587Z,95786.22
2022-11-17T12:10:58.656Z,95782.13
2022-11-17T12:13:26.050Z,95785.69
2022-11-17T12:16:19.416Z,95774.97
2022-11-17T12:18:45.866Z,95757.50
2022-11-17T12:21:13.731Z,95761.75
2022-11-17T12:23:49.427Z,95760.56
2022-11-17T12:26:27.752Z,95755.84
2022-11-17T12:29:22.265Z,95763.28
2022-11-17T12:32:00.371Z,95760.78
2022-11-17T12:34:36.890Z,95769.41
2022-11-17T12:37:13.240Z,95772.38
2022-11-17T12:40:06.497Z,95769.56
2022-11-17T12:42:34.234Z,95767.91
2022-11-17T12:45:08.750Z,95765.78
2022-11-17T12:48:04.838Z,95774.13
2022-11-17T12:50:53.867Z,95759.28
2022-11-17T12:53:29.250Z,95753.09
2022-11-17T12:56:14.285Z,95750.75
2022-11-17T12:59:18.944Z,95760.53
2022-11-17T13:02:03.905Z,95755.03
2022-11-17T13:04:43.834Z,95749.91
2022-11-17T13:07:25.871Z,95767.63
2022-11-17T13:09:57.582Z,95755.88
2022-11-17T13:12:27.329Z,95755.50
2022-11-17T13:14:55.903Z,95754.84
2022-11-17T13:17:32.943Z,95748.91
2022-11-17T13:20:20.691Z,95744.50
2022-11-17T13:23:13.252Z,95744.31
2022-11-17T13:25:39.943Z,95744.09
2022-11-17T13:28:06.568Z,95750.66
2022-11-17T13:30:33.147Z,95746.66
2022-11-17T13:33:02.340Z,95758.31
2022-11-17T13:35:36.035Z,95753.97
2022-11-17T13:38:11.454Z,95763.34
2022-11-17T13:40:41.148Z,95763.22
2022-11-17T13:43:12.757Z,95762.31
2022-11-17T13:45:40.511Z,95767.41
2022-11-17T13:48:06.910Z,95758.34
2022-11-17T13:50:37.029Z,95761.19
2022-11-17T13:53:23.152Z,95755.03
2022-11-17T13:55:49.822Z,95750.38
2022-11-17T13:58:40.102Z,95755.56
2022-11-17T14:01:11.053Z,95755.06
2022-11-17T14:03:39.946Z,95745.44
2022-11-17T14:06:09.645Z,95755.75
2022-11-17T14:08:37.949Z,95755.06
2022-11-17T14:11:07.586Z,95749.09
2022-11-17T14:13:51.083Z,95764.69
2022-11-17T14:16:38.272Z,95758.88
2022-11-17T14:19:24.355Z,95761.81
2022-11-17T14:22:27.701Z,95759.72
2022-11-17T14:24:57.739Z,95762.91
2022-11-17T14:27:26.948Z,95770.47
2022-11-17T14:29:53.444Z,95769.34
2022-11-17T14:32:19.782Z,95763.91
2022-11-17T14:34:46.220Z,95768.84
2022-11-17T14:37:12.681Z,95779.22
2022-11-17T14:39:38.972Z,95775.56
2022-11-17T14:42:05.348Z,95776.50
2022-11-17T14:44:31.778Z,95778.00
2022-11-17T14:46:58.366Z,95782.06
2022-11-17T14:49:25.329Z,95777.16
2022-11-17T14:51:53.264Z,95782.22
2022-11-17T14:54:19.801Z,95784.88
2022-11-17T14:56:46.203Z,95791.91
2022-11-17T14:59:13.404Z,95798.59
2022-11-17T15:01:41.627Z,95794.97
2022-11-17T15:04:34.499Z,95796.66
2022-11-17T15:06:54.678Z,95795.47
2022-11-17T15:09:21.463Z,95781.94
2022-11-17T15:11:48.152Z,95800.53
2022-11-17T15:14:14.902Z,95807.28
2022-11-17T15:16:41.539Z,95799.06
2022-11-17T15:19:08.233Z,95794.09
2022-11-17T15:21:34.830Z,95780.88
2022-11-17T15:24:03.293Z,95785.63
2022-11-17T15:26:29.675Z,95788.81
2022-11-17T15:28:57.879Z,95787.28
2022-11-17T15:31:24.410Z,95785.19
2022-11-17T15:33:51.018Z,95778.94
2022-11-17T15:36:20.052Z,95776.50
2022-11-17T15:38:47.970Z,95780.16
2022-11-17T15:41:15.752Z,95775.72
2022-11-17T15:43:44.086Z,95771.75
2022-11-17T15:46:15.862Z,95773.28
2022-11-17T15:48:44.664Z,95777.34
2022-11-17T15:51:17.071Z,95774.47
2022-11-17T15:53:45.494Z,95779.00
2022-11-17T15:56:17.707Z,95773.03
2022-11-17T15:58:45.214Z,95765.91
2022-11-17T16:01:23.957Z,95768.63
2022-11-17T16:03:51.669Z,95772.81
2022-11-17T16:06:19.023Z,95758.81
2022-11-17T16:08:45.405Z,95763.78
2022-11-17T16:11:11.782Z,95750.09
2022-11-17T16:13:38.495Z,95754.69
2022-11-17T16:16:05.406Z,95758.69
2022-11-17T16:18:35.132Z,95761.00
2022-11-17T16:21:04.808Z,95764.75
2022-11-17T16:23:37.403Z,95759.47
2022-11-17T16:26:03.979Z,95764.84
2022-11-17T16:28:30.358Z,95759.53
2022-11-17T16:30:56.878Z,95759.31
2022-11-17T16:33:23.373Z,95762.03
2022-11-17T16:35:49.801Z,95766.13
2022-11-17T16:38:17.770Z,95762.59
2022-11-17T16:40:44.154Z,95765.88
2022-11-17T16:43:13.024Z,95765.25
2022-11-17T16:45:45.047Z,95763.28
2022-11-17T16:48:12.528Z,95763.41
2022-11-17T16:50:40.840Z,95757.94
2022-11-17T16:53:07.546Z,95757.63
2022-11-17T16:55:35.371Z,95759.16
2022-11-17T16:58:03.430Z,95755.84
2022-11-17T17:00:30.075Z,95768.84
2022-11-17T17:02:57.236Z,95766.44
2022-11-17T17:05:25.149Z,95761.75
2022-11-17T17:07:51.648Z,95756.75
2022-11-17T17:10:18.054Z,95764.63
2022-11-17T17:12:44.619Z,95760.22
2022-11-17T17:15:11.211Z,95757.41
2022-11-17T17:17:38.366Z,95753.03
2022-11-17T17:20:05.674Z,95756.25
2022-11-17T17:22:32.833Z,95745.97
2022-11-17T17:24:59.236Z,95757.50
2022-11-17T17:27:25.551Z,95750.44
2022-11-17T17:29:56.710Z,95770.59
2022-11-17T17:32:23.319Z,95760.44
2022-11-17T17:34:50.062Z,95769.06
2022-11-17T17:37:16.842Z,95770.59
2022-11-17T17:39:43.382Z,95766.78
2022-11-17T17:42:09.912Z,95760.56
2022-11-17T17:44:36.540Z,95762.09
2022-11-17T17:47:03.156Z,95753.84
2022-11-17T17:49:29.519Z,95746.88
2022-11-17T17:51:55.851Z,95749.16
2022-11-17T17:54:24.163Z,95747.88
2022-11-17T17:56:50.555Z,95750.16
2022-11-17T17:59:18.110Z,95742.13
2022-11-17T18:01:47.348Z,95739.00
2022-11-17T18:04:16.227Z,95750.09
2022-11-17T18:06:46.291Z,95755.84
2022-11-17T18:09:14.537Z,95754.03
2022-11-17T18:11:47.759Z,95747.63
2022-11-17T18:14:14.280Z,95752.56
2022-11-17T18:16:41.269Z,95745.97
2022-11-17T18:19:09.090Z,95746.88
2022-11-17T18:21:36.325Z,95752.06
2022-11-17T18:24:03.639Z,95749.25
2022-11-17T18:26:33.177Z,95749.91
2022-11-17T18:29:13.403Z,95753.09
2022-11-17T18:31:40.175Z,95742.28
2022-11-17T18:34:13.403Z,95739.03
2022-11-17T18:36:40.259Z,95747.88
2022-11-17T18:39:06.878Z,95751.50
2022-11-17T18:41:33.954Z,95750.03
2022-11-17T18:44:00.893Z,95754.59
2022-11-17T18:46:30.024Z,95760.81
2022-11-17T18:48:56.891Z,95760.59
2022-11-17T18:51:26.488Z,95758.63
2022-11-17T18:53:54.470Z,95756.59
2022-11-17T18:56:23.209Z,95754.84
2022-11-17T18:58:50.171Z,95753.31
2022-11-17T19:01:25.428Z,95744.50
2022-11-17T19:03:53.774Z,95740.00
2022-11-17T19:06:22.680Z,95739.38
2022-11-17T19:08:49.889Z,95747.22
2022-11-17T19:11:18.214Z,95745.59
2022-11-17T19:16:44.549Z,95757.25
2022-11-17T19:19:13.653Z,95750.91
2022-11-17T19:21:40.694Z,95752.63
2022-11-17T19:24:07.810Z,95743.69
2022-11-17T19:26:36.203Z,95754.59
2022-11-17T19:29:07.813Z,95749.97
2022-11-17T19:31:37.854Z,95751.38
2022-11-17T19:34:04.405Z,95752.44
2022-11-17T19:36:33.594Z,95746.50
2022-11-17T19:39:01.575Z,95735.53
2022-11-17T19:41:31.142Z,95729.25
2022-11-17T19:44:00.267Z,95728.34
2022-11-17T19:46:28.508Z,95725.00
2022-11-17T19:48:56.437Z,95735.97
2022-11-17T19:51:25.925Z,95736.22
2022-11-17T19:53:54.996Z,95735.97
2022-11-17T19:56:22.640Z,95737.03
2022-11-17T19:58:49.870Z,95740.84
2022-11-17T20:01:27.847Z,95748.41
2022-11-17T20:03:55.787Z,95752.44
2022-11-17T20:06:24.546Z,95760.69
2022-11-17T20:08:51.385Z,95764.63
2022-11-17T20:11:21.421Z,95758.66
2022-11-17T20:13:48.229Z,95758.34
2022-11-17T20:16:18.679Z,95762.28
2022-11-17T20:18:50.067Z,95772.94
2022-11-17T20:21:16.790Z,95779.59
2022-11-17T20:23:43.715Z,95774.75
2022-11-17T20:26:16.250Z,95771.47
2022-11-17T20:28:43.094Z,95775.38
2022-11-17T20:31:12.381Z,95781.50
2022-11-17T20:33:39.879Z,95786.19
2022-11-17T20:36:08.187Z,95789.97
2022-11-17T20:38:36.097Z,95789.09
2022-11-17T20:41:03.948Z,95788.63
2022-11-17T20:43:30.647Z,95793.91
2022-11-17T20:45:57.989Z,95795.50
2022-11-17T20:48:25.835Z,95804.44
2022-11-17T20:51:10.975Z,95803.69
2022-11-17T20:53:37.839Z,95803.31
2022-11-17T20:56:07.079Z,95804.91
2022-11-17T20:58:34.291Z,95808.75
2022-11-17T21:01:15.661Z,95801.88
2022-11-17T21:03:43.484Z,95809.97
2022-11-17T21:06:10.306Z,95808.69
2022-11-17T21:08:38.928Z,95811.03
2022-11-17T21:11:08.286Z,95807.25
2022-11-17T21:13:36.123Z,95814.38
2022-11-17T21:16:05.550Z,95823.31
2022-11-17T21:18:32.898Z,95810.44
2022-11-17T21:21:00.206Z,95812.41
2022-11-17T21:23:28.099Z,95809.66
2022-11-17T21:25:54.873Z,95803.00
2022-11-17T21:28:21.782Z,95807.25
2022-11-17T21:30:48.364Z,95809.91
2022-11-17T21:33:14.920Z,95815.50
2022-11-17T21:35:41.522Z,95811.28
2022-11-17T21:38:09.029Z,95809.81
2022-11-17T21:40:35.399Z,95801.50
2022-11-17T21:43:01.849Z,95803.63
2022-11-17T21:45:28.503Z,95794.31
2022-11-17T21:47:59.236Z,95771.66
2022-11-17T21:50:26.203Z,95786.69
2022-11-17T21:52:52.610Z,95777.16
2022-11-17T21:55:19.224Z,95769.44
2022-11-17T21:57:45.559Z,95764.13
2022-11-17T22:00:12.426Z,95779.28
2022-11-17T22:02:38.945Z,95794.31
2022-11-17T22:05:05.774Z,95802.66
2022-11-17T22:07:32.183Z,95810.53
2022-11-17T22:09:58.810Z,95805.69
2022-11-17T22:12:25.367Z,95810.72
2022-11-17T22:14:51.967Z,95830.59
2022-11-17T22:17:18.568Z,95828.81
2022-11-17T22:19:44.949Z,95818.75
2022-11-17T22:22:11.453Z,95816.47
2022-11-17T22:24:39.853Z,95825.44
2022-11-17T22:27:06.764Z,95834.81
2022-11-17T22:29:33.408Z,95826.03
2022-11-17T22:31:59.795Z,95833.28
2022-11-17T22:34:26.438Z,95836.97
2022-11-17T22:36:53.022Z,95835.75
2022-11-17T22:39:19.884Z,95834.22
2022-11-17T22:41:46.643Z,95833.78
2022-11-17T22:44:15.064Z,95834.81
2022-11-17T22:46:43.284Z,95848.00
2022-11-17T22:49:10.522Z,95860.53
2022-11-17T22:51:55.420Z,95863.28
2022-11-17T22:54:21.966Z,95860.50
2022-11-17T22:56:48.779Z,95866.50
2022-11-17T22:59:15.529Z,95861.03
2022-11-17T23:01:42.287Z,95854.50
2022-11-17T23:04:08.902Z,95858.56
2022-11-17T23:06:37.683Z,95862.94
2022-11-17T23:09:04.070Z,95861.75
2022-11-17T23:11:36.994Z,95854.13
2022-11-17T23:14:07.246Z,95858.25
2022-11-17T23:16:33.929Z,95864.41
2022-11-17T23:19:00.582Z,95863.53
2022-11-17T23:21:27.266Z,95867.91
2022-11-17T23:23:53.705Z,95859.22
2022-11-17T23:26:20.903Z,95859.38
2022-11-17T23:28:47.306Z,95859.53
2022-11-17T23:31:16.090Z,95860.22
2022-11-17T23:33:44.868Z,95855.88
2022-11-17T23:36:14.380Z,95860.13
2022-11-17T23:38:40.963Z,95855.44
2022-11-17T23:41:10.324Z,95855.28
2022-11-17T23:43:36.926Z,95865.88
2022-11-17T23:46:06.010Z,95855.56
2022-11-17T23:48:32.598Z,95858.16
2022-11-17T23:51:03.606Z,95864.97
2022-11-17T23:53:30.092Z,95859.53
2022-11-17T23:55:57.760Z,95854.31
2022-11-17T23:58:24.393Z,95849.63
